CMP251 MPTO-SVVA
Flight info
| Callsign | CMP251 |
|---|---|
| Flight time | N/A |
| Altitude | 39000 |
| Route | REMA1A REMAL ESEDA UP650 UBDIM UW5 BRM UW14 NOSCA |
| Aircraft | B38M/M-SDE3FGHIRWY/S |
Departure
| Time | 2026-05-06 19:44 |
|---|---|
| Airport | Tocumen International Airport (MPTO) |
Arrival
| Time | N/A |
|---|---|
| Airport | Arturo Michelena International Airport (SVVA) |
| Time | Latitude | Longitude | Altitude | Speed | Heading |
|---|---|---|---|---|---|
| 2026-05-06 19:02 | 9.06426 | -79.38706 | 32 ft | 0 kts | 7° |
| 2026-05-06 19:30 | 9.06403 | -79.38711 | 32 ft | 4 kts | 32° |
| 2026-05-06 19:31 | 9.06391 | -79.38727 | 32 ft | 4 kts | 101° |
| 2026-05-06 19:31 | 9.06393 | -79.38734 | 32 ft | 1 kts | 119° |
| 2026-05-06 19:40 | 9.06377 | -79.38704 | 32 ft | 14 kts | 119° |
| 2026-05-06 19:40 | 9.06392 | -79.38602 | 32 ft | 20 kts | 28° |
| 2026-05-06 19:41 | 9.06546 | -79.38517 | 32 ft | 29 kts | 28° |
| 2026-05-06 19:41 | 9.06700 | -79.38436 | 32 ft | 25 kts | 27° |
| 2026-05-06 19:41 | 9.06857 | -79.38381 | 32 ft | 23 kts | 345° |
| 2026-05-06 19:41 | 9.06959 | -79.38466 | 33 ft | 14 kts | 9° |
| 2026-05-06 19:42 | 9.07046 | -79.38417 | 33 ft | 15 kts | 28° |
| 2026-05-06 19:42 | 9.07137 | -79.38392 | 33 ft | 11 kts | 319° |
| 2026-05-06 19:42 | 9.07178 | -79.38452 | 33 ft | 10 kts | 301° |
| 2026-05-06 19:42 | 9.07212 | -79.38511 | 34 ft | 9 kts | 300° |
| 2026-05-06 19:43 | 9.07239 | -79.38562 | 36 ft | 7 kts | 293° |
| 2026-05-06 19:43 | 9.07255 | -79.38613 | 39 ft | 10 kts | 276° |
| 2026-05-06 19:43 | 9.07267 | -79.38693 | 48 ft | 12 kts | 299° |
| 2026-05-06 19:43 | 9.07366 | -79.38682 | 46 ft | 36 kts | 31° |
| 2026-05-06 19:44 | 9.07801 | -79.38417 | 52 ft | 108 kts | 31° |
| 2026-05-06 19:44 | 9.08623 | -79.37922 | 53 ft | 164 kts | 30° |
| 2026-05-06 19:44 | 9.09689 | -79.37282 | 436 ft | 186 kts | 30° |
| 2026-05-06 19:44 | 9.10830 | -79.36579 | 1142 ft | 192 kts | 38° |
| 2026-05-06 19:45 | 9.11494 | -79.35517 | 2060 ft | 188 kts | 79° |
| 2026-05-06 19:45 | 9.11279 | -79.34141 | 2469 ft | 214 kts | 108° |
| 2026-05-06 19:45 | 9.11030 | -79.32592 | 2933 ft | 232 kts | 85° |
| 2026-05-06 19:45 | 9.11112 | -79.30931 | 3683 ft | 242 kts | 86° |
| 2026-05-06 19:46 | 9.11134 | -79.29222 | 4556 ft | 247 kts | 89° |
| 2026-05-06 19:46 | 9.11117 | -79.27421 | 5204 ft | 264 kts | 90° |
| 2026-05-06 19:46 | 9.11071 | -79.25570 | 5955 ft | 270 kts | 90° |
| 2026-05-06 19:46 | 9.11011 | -79.23622 | 6826 ft | 275 kts | 91° |
| 2026-05-06 19:47 | 9.10939 | -79.21660 | 7612 ft | 282 kts | 91° |
| 2026-05-06 19:47 | 9.10861 | -79.19678 | 8440 ft | 284 kts | 92° |
| 2026-05-06 19:47 | 9.10775 | -79.17667 | 9186 ft | 288 kts | 92° |
| 2026-05-06 19:47 | 9.10697 | -79.15648 | 10012 ft | 289 kts | 91° |
| 2026-05-06 19:48 | 9.10609 | -79.13577 | 10603 ft | 300 kts | 92° |
| 2026-05-06 19:48 | 9.10513 | -79.11441 | 11246 ft | 309 kts | 92° |
| 2026-05-06 19:48 | 9.10413 | -79.09248 | 11941 ft | 314 kts | 93° |
| 2026-05-06 19:48 | 9.10318 | -79.07042 | 12800 ft | 314 kts | 92° |
| 2026-05-06 19:49 | 9.10226 | -79.04802 | 13530 ft | 320 kts | 92° |
| 2026-05-06 19:49 | 9.10128 | -79.02547 | 14318 ft | 323 kts | 93° |
| 2026-05-06 19:49 | 9.10028 | -79.00256 | 15093 ft | 328 kts | 92° |
| 2026-05-06 19:49 | 9.09927 | -78.97942 | 15883 ft | 331 kts | 92° |
| 2026-05-06 19:50 | 9.09826 | -78.95601 | 16643 ft | 335 kts | 92° |
| 2026-05-06 19:50 | 9.09723 | -78.93235 | 17382 ft | 338 kts | 92° |
| 2026-05-06 19:50 | 9.09620 | -78.90877 | 18072 ft | 342 kts | 92° |
| 2026-05-06 19:50 | 9.09515 | -78.88464 | 18747 ft | 345 kts | 92° |
| 2026-05-06 19:51 | 9.09408 | -78.86021 | 19389 ft | 350 kts | 92° |
| 2026-05-06 19:51 | 9.09300 | -78.83544 | 19995 ft | 354 kts | 91° |
| 2026-05-06 19:51 | 9.09190 | -78.81043 | 20594 ft | 358 kts | 91° |
| 2026-05-06 19:51 | 9.09079 | -78.78517 | 21160 ft | 361 kts | 91° |
| 2026-05-06 19:52 | 9.08966 | -78.75963 | 21715 ft | 365 kts | 91° |
| 2026-05-06 19:52 | 9.08853 | -78.73388 | 22233 ft | 369 kts | 91° |
| 2026-05-06 19:52 | 9.08738 | -78.70775 | 22762 ft | 372 kts | 91° |
| 2026-05-06 19:52 | 9.08621 | -78.68146 | 23268 ft | 376 kts | 91° |
| 2026-05-06 19:53 | 9.08504 | -78.65492 | 23764 ft | 379 kts | 91° |
| 2026-05-06 19:53 | 9.08385 | -78.62817 | 24245 ft | 383 kts | 91° |
| 2026-05-06 19:53 | 9.08265 | -78.60120 | 24707 ft | 386 kts | 91° |
| 2026-05-06 19:53 | 9.08144 | -78.57397 | 25145 ft | 389 kts | 91° |
| 2026-05-06 19:54 | 9.08022 | -78.54678 | 25582 ft | 393 kts | 91° |
| 2026-05-06 19:54 | 9.07899 | -78.51904 | 26018 ft | 396 kts | 91° |
| 2026-05-06 19:54 | 9.07774 | -78.49106 | 26457 ft | 400 kts | 91° |
| 2026-05-06 19:54 | 9.07647 | -78.46286 | 26874 ft | 403 kts | 92° |
| 2026-05-06 19:55 | 9.07520 | -78.43440 | 27265 ft | 407 kts | 92° |
| 2026-05-06 19:55 | 9.07390 | -78.40562 | 27673 ft | 410 kts | 92° |
| 2026-05-06 19:55 | 9.07260 | -78.37675 | 28065 ft | 413 kts | 92° |
| 2026-05-06 19:55 | 9.07129 | -78.34765 | 28441 ft | 416 kts | 92° |
| 2026-05-06 19:56 | 9.06996 | -78.31832 | 28809 ft | 419 kts | 92° |
| 2026-05-06 19:56 | 9.06862 | -78.28875 | 29170 ft | 422 kts | 92° |
| 2026-05-06 19:56 | 9.06727 | -78.25905 | 29525 ft | 425 kts | 92° |
| 2026-05-06 19:56 | 9.06591 | -78.22910 | 29869 ft | 428 kts | 92° |
| 2026-05-06 19:57 | 9.06454 | -78.19895 | 30202 ft | 431 kts | 92° |
| 2026-05-06 19:57 | 9.06316 | -78.16854 | 30541 ft | 433 kts | 92° |
| 2026-05-06 19:57 | 9.06176 | -78.13803 | 30868 ft | 435 kts | 92° |
| 2026-05-06 19:57 | 9.06036 | -78.10733 | 31173 ft | 438 kts | 92° |
| 2026-05-06 19:58 | 9.05894 | -78.07643 | 31488 ft | 441 kts | 92° |
| 2026-05-06 19:58 | 9.05751 | -78.04531 | 31800 ft | 443 kts | 92° |
| 2026-05-06 19:58 | 9.05608 | -78.01412 | 32098 ft | 446 kts | 92° |
| 2026-05-06 19:58 | 9.05463 | -77.98272 | 32391 ft | 448 kts | 92° |
| 2026-05-06 19:59 | 9.05319 | -77.95154 | 32677 ft | 451 kts | 92° |
| 2026-05-06 19:59 | 9.05172 | -77.91978 | 32960 ft | 453 kts | 92° |
| 2026-05-06 19:59 | 9.05024 | -77.88788 | 33243 ft | 455 kts | 92° |
| 2026-05-06 19:59 | 9.04875 | -77.85580 | 33506 ft | 458 kts | 92° |
| 2026-05-06 20:00 | 9.04725 | -77.82357 | 33779 ft | 460 kts | 92° |
| 2026-05-06 20:00 | 9.04574 | -77.79116 | 34019 ft | 463 kts | 92° |
| 2026-05-06 20:00 | 9.04421 | -77.75853 | 34294 ft | 464 kts | 92° |
| 2026-05-06 20:00 | 9.04268 | -77.72583 | 34546 ft | 466 kts | 92° |
| 2026-05-06 20:01 | 9.04114 | -77.69292 | 34794 ft | 468 kts | 92° |
| 2026-05-06 20:01 | 9.03959 | -77.65996 | 35090 ft | 469 kts | 92° |
| 2026-05-06 20:01 | 9.03806 | -77.62742 | 35450 ft | 468 kts | 92° |
| 2026-05-06 20:01 | 9.03651 | -77.59458 | 35807 ft | 467 kts | 92° |
| 2026-05-06 20:02 | 9.03497 | -77.56178 | 36140 ft | 467 kts | 92° |
| 2026-05-06 20:02 | 9.03341 | -77.52900 | 36431 ft | 467 kts | 92° |
| 2026-05-06 20:02 | 9.03184 | -77.49581 | 36723 ft | 467 kts | 92° |
| 2026-05-06 20:02 | 9.03030 | -77.46342 | 37040 ft | 465 kts | 92° |
| 2026-05-06 20:03 | 9.02880 | -77.43078 | 37413 ft | 462 kts | 91° |
| 2026-05-06 20:03 | 9.03169 | -77.39868 | 37754 ft | 458 kts | 77° |
| 2026-05-06 20:03 | 9.03775 | -77.36713 | 38053 ft | 457 kts | 79° |
| 2026-05-06 20:03 | 9.04337 | -77.33547 | 38293 ft | 457 kts | 79° |
| 2026-05-06 20:04 | 9.04914 | -77.30394 | 38531 ft | 457 kts | 78° |
| 2026-05-06 20:04 | 9.05501 | -77.27237 | 38751 ft | 457 kts | 78° |
| 2026-05-06 20:04 | 9.06091 | -77.24074 | 38887 ft | 458 kts | 78° |
| 2026-05-06 20:04 | 9.06682 | -77.20908 | 38895 ft | 458 kts | 78° |
| 2026-05-06 20:05 | 9.07860 | -77.14591 | 38883 ft | 457 kts | 78° |
| 2026-05-06 20:05 | 9.09037 | -77.08277 | 38859 ft | 457 kts | 78° |
| 2026-05-06 20:06 | 9.10214 | -77.01958 | 38858 ft | 457 kts | 78° |
| 2026-05-06 20:06 | 9.11390 | -76.95635 | 38860 ft | 457 kts | 78° |
| 2026-05-06 20:07 | 9.12557 | -76.89352 | 38859 ft | 457 kts | 78° |
| 2026-05-06 20:07 | 9.13732 | -76.83025 | 38856 ft | 457 kts | 78° |
| 2026-05-06 20:08 | 9.14905 | -76.76702 | 38859 ft | 458 kts | 78° |
| 2026-05-06 20:08 | 9.16078 | -76.70372 | 38861 ft | 457 kts | 78° |
| 2026-05-06 20:09 | 9.17250 | -76.64038 | 38860 ft | 458 kts | 78° |
| 2026-05-06 20:09 | 9.18421 | -76.57704 | 38859 ft | 458 kts | 78° |
| 2026-05-06 20:10 | 9.19593 | -76.51361 | 38861 ft | 459 kts | 78° |
| 2026-05-06 20:10 | 9.20764 | -76.45015 | 38861 ft | 459 kts | 78° |
| 2026-05-06 20:11 | 9.21927 | -76.38706 | 38859 ft | 459 kts | 78° |
| 2026-05-06 20:11 | 9.23097 | -76.32354 | 38860 ft | 459 kts | 78° |
| 2026-05-06 20:12 | 9.24265 | -76.26001 | 38859 ft | 460 kts | 78° |
| 2026-05-06 20:12 | 9.25435 | -76.19637 | 38859 ft | 460 kts | 78° |
| 2026-05-06 20:13 | 9.26604 | -76.13270 | 38861 ft | 460 kts | 78° |
| 2026-05-06 20:13 | 9.27574 | -76.07983 | 38864 ft | 460 kts | 79° |
| 2026-05-06 20:14 | 9.28740 | -76.01622 | 38858 ft | 459 kts | 78° |
| 2026-05-06 20:14 | 9.29905 | -75.95258 | 38859 ft | 460 kts | 79° |
| 2026-05-06 20:15 | 9.31071 | -75.88880 | 38862 ft | 461 kts | 79° |
| 2026-05-06 20:15 | 9.32237 | -75.82495 | 38860 ft | 461 kts | 79° |
| 2026-05-06 20:16 | 9.33404 | -75.76103 | 38863 ft | 461 kts | 79° |
| 2026-05-06 20:16 | 9.34567 | -75.69722 | 38851 ft | 461 kts | 79° |
| 2026-05-06 20:17 | 9.35730 | -75.63335 | 38851 ft | 461 kts | 79° |
| 2026-05-06 20:17 | 9.36893 | -75.56945 | 38850 ft | 461 kts | 79° |
| 2026-05-06 20:18 | 9.38054 | -75.50555 | 38851 ft | 461 kts | 79° |
| 2026-05-06 20:18 | 9.39207 | -75.44206 | 38856 ft | 461 kts | 79° |
| 2026-05-06 20:19 | 9.40365 | -75.37822 | 38861 ft | 461 kts | 79° |
| 2026-05-06 20:19 | 9.41522 | -75.31433 | 38860 ft | 461 kts | 79° |
| 2026-05-06 20:20 | 9.42679 | -75.25038 | 38859 ft | 461 kts | 79° |
| 2026-05-06 20:20 | 9.43826 | -75.18690 | 38858 ft | 461 kts | 79° |
| 2026-05-06 20:21 | 9.44981 | -75.12297 | 38861 ft | 461 kts | 79° |
| 2026-05-06 20:21 | 9.46135 | -75.05905 | 38853 ft | 462 kts | 79° |
| 2026-05-06 20:22 | 9.47289 | -74.99502 | 38850 ft | 461 kts | 79° |
| 2026-05-06 20:22 | 9.48439 | -74.93114 | 38851 ft | 461 kts | 79° |
| 2026-05-06 20:23 | 9.49590 | -74.86717 | 38853 ft | 461 kts | 79° |
| 2026-05-06 20:23 | 9.50677 | -74.80304 | 38850 ft | 462 kts | 80° |
| 2026-05-06 20:24 | 9.51763 | -74.73881 | 38851 ft | 463 kts | 80° |
| 2026-05-06 20:24 | 9.52842 | -74.67502 | 38850 ft | 462 kts | 80° |
| 2026-05-06 20:25 | 9.53926 | -74.61080 | 38851 ft | 462 kts | 80° |
| 2026-05-06 20:25 | 9.55008 | -74.54663 | 38857 ft | 463 kts | 80° |
| 2026-05-06 20:26 | 9.56094 | -74.48226 | 38859 ft | 464 kts | 80° |
| 2026-05-06 20:26 | 9.57177 | -74.41787 | 38863 ft | 463 kts | 80° |
| 2026-05-06 20:27 | 9.58261 | -74.35345 | 38868 ft | 463 kts | 80° |
| 2026-05-06 20:27 | 9.59341 | -74.28909 | 38871 ft | 464 kts | 80° |
| 2026-05-06 20:28 | 9.60424 | -74.22459 | 38868 ft | 464 kts | 80° |
| 2026-05-06 20:28 | 9.61504 | -74.16009 | 38869 ft | 464 kts | 80° |
| 2026-05-06 20:29 | 9.62584 | -74.09559 | 38869 ft | 464 kts | 80° |
| 2026-05-06 20:29 | 9.63661 | -74.03114 | 38875 ft | 464 kts | 80° |
| 2026-05-06 20:30 | 9.65269 | -73.93478 | 38877 ft | 464 kts | 80° |
| 2026-05-06 20:31 | 9.66346 | -73.87018 | 38879 ft | 464 kts | 80° |
| 2026-05-06 20:31 | 9.67420 | -73.80564 | 38879 ft | 464 kts | 80° |
| 2026-05-06 20:32 | 9.68493 | -73.74111 | 38879 ft | 464 kts | 80° |
| 2026-05-06 20:32 | 9.69572 | -73.67661 | 38877 ft | 464 kts | 80° |
| 2026-05-06 20:33 | 9.70653 | -73.61215 | 38882 ft | 464 kts | 80° |
| 2026-05-06 20:33 | 9.71732 | -73.54773 | 38878 ft | 463 kts | 80° |
| 2026-05-06 20:34 | 9.72810 | -73.48332 | 38879 ft | 463 kts | 80° |
| 2026-05-06 20:34 | 9.73884 | -73.41901 | 38878 ft | 462 kts | 80° |
| 2026-05-06 20:35 | 9.74959 | -73.35466 | 38879 ft | 462 kts | 80° |
| 2026-05-06 20:35 | 9.76022 | -73.29086 | 38879 ft | 462 kts | 80° |
| 2026-05-06 20:36 | 9.77091 | -73.22667 | 38878 ft | 461 kts | 80° |
| 2026-05-06 20:36 | 9.78157 | -73.16253 | 38894 ft | 461 kts | 80° |
| 2026-05-06 20:37 | 9.79221 | -73.09846 | 38898 ft | 460 kts | 80° |
| 2026-05-06 20:37 | 9.80284 | -73.03445 | 38902 ft | 460 kts | 80° |
| 2026-05-06 20:38 | 9.81286 | -72.97045 | 38895 ft | 459 kts | 85° |
| 2026-05-06 20:38 | 9.81761 | -72.90590 | 38910 ft | 459 kts | 86° |
| 2026-05-06 20:39 | 9.82207 | -72.84132 | 38909 ft | 458 kts | 86° |
| 2026-05-06 20:39 | 9.82645 | -72.77717 | 38907 ft | 458 kts | 86° |
| 2026-05-06 20:40 | 9.83084 | -72.71271 | 38915 ft | 458 kts | 86° |
| 2026-05-06 20:40 | 9.83522 | -72.64832 | 38914 ft | 457 kts | 86° |
| 2026-05-06 20:41 | 9.83957 | -72.58399 | 38914 ft | 457 kts | 86° |
| 2026-05-06 20:41 | 9.84391 | -72.51968 | 38925 ft | 457 kts | 86° |
| 2026-05-06 20:42 | 9.84824 | -72.45542 | 38935 ft | 457 kts | 86° |
| 2026-05-06 20:42 | 9.85256 | -72.39112 | 38938 ft | 456 kts | 86° |
| 2026-05-06 20:43 | 9.85682 | -72.32743 | 38939 ft | 456 kts | 86° |
| 2026-05-06 20:43 | 9.86110 | -72.26331 | 38943 ft | 456 kts | 86° |
| 2026-05-06 20:44 | 9.86537 | -72.19917 | 38952 ft | 456 kts | 86° |
| 2026-05-06 20:44 | 9.86963 | -72.13500 | 38952 ft | 456 kts | 86° |
| 2026-05-06 20:45 | 9.87388 | -72.07081 | 38958 ft | 456 kts | 86° |
| 2026-05-06 20:45 | 9.87812 | -72.00658 | 38962 ft | 456 kts | 86° |
| 2026-05-06 20:46 | 9.88234 | -71.94242 | 38962 ft | 456 kts | 86° |
| 2026-05-06 20:46 | 9.88655 | -71.87820 | 38965 ft | 456 kts | 86° |
| 2026-05-06 20:47 | 9.89075 | -71.81408 | 38970 ft | 456 kts | 86° |
| 2026-05-06 20:47 | 9.89491 | -71.75030 | 38971 ft | 456 kts | 86° |
| 2026-05-06 20:48 | 9.89909 | -71.68607 | 38972 ft | 456 kts | 86° |
| 2026-05-06 20:48 | 9.90325 | -71.62192 | 38990 ft | 456 kts | 86° |
| 2026-05-06 20:49 | 9.90740 | -71.55766 | 38992 ft | 456 kts | 86° |
| 2026-05-06 20:49 | 9.91154 | -71.49350 | 39001 ft | 456 kts | 86° |
| 2026-05-06 20:50 | 9.91567 | -71.42923 | 39001 ft | 456 kts | 86° |
| 2026-05-06 20:50 | 9.91976 | -71.36539 | 39001 ft | 456 kts | 86° |
| 2026-05-06 20:51 | 9.92387 | -71.30113 | 39000 ft | 456 kts | 86° |
| 2026-05-06 20:51 | 9.92796 | -71.23693 | 38997 ft | 456 kts | 86° |
| 2026-05-06 20:52 | 9.93204 | -71.17266 | 38999 ft | 456 kts | 86° |
| 2026-05-06 20:52 | 9.93611 | -71.10838 | 39011 ft | 456 kts | 86° |
| 2026-05-06 20:53 | 9.94016 | -71.04414 | 39012 ft | 456 kts | 86° |
| 2026-05-06 20:53 | 9.94418 | -70.98031 | 39010 ft | 456 kts | 86° |
| 2026-05-06 20:54 | 9.94821 | -70.91605 | 39020 ft | 456 kts | 86° |
| 2026-05-06 20:54 | 9.95224 | -70.85168 | 39024 ft | 457 kts | 86° |
| 2026-05-06 20:55 | 9.95626 | -70.78724 | 39025 ft | 457 kts | 86° |
| 2026-05-06 20:55 | 9.96026 | -70.72292 | 39029 ft | 457 kts | 86° |
| 2026-05-06 20:56 | 9.96425 | -70.65854 | 39029 ft | 457 kts | 86° |
| 2026-05-06 20:56 | 9.96823 | -70.59410 | 39045 ft | 458 kts | 86° |
| 2026-05-06 20:57 | 9.97218 | -70.52999 | 39050 ft | 458 kts | 86° |
| 2026-05-06 20:57 | 9.97614 | -70.46540 | 39053 ft | 458 kts | 86° |
| 2026-05-06 20:58 | 9.98009 | -70.40087 | 39065 ft | 458 kts | 86° |
| 2026-05-06 20:58 | 9.98402 | -70.33647 | 39064 ft | 454 kts | 86° |
| 2026-05-06 20:59 | 9.98790 | -70.27261 | 39073 ft | 454 kts | 86° |
| 2026-05-06 20:59 | 9.99112 | -70.21945 | 39082 ft | 454 kts | 86° |
| 2026-05-06 21:00 | 9.99563 | -70.14496 | 38141 ft | 460 kts | 86° |
| 2026-05-06 21:00 | 9.99764 | -70.11167 | 36730 ft | 479 kts | 86° |
| 2026-05-06 21:00 | 9.99965 | -70.07826 | 36320 ft | 470 kts | 86° |
| 2026-05-06 21:00 | 10.00163 | -70.04534 | 35729 ft | 467 kts | 86° |
| 2026-05-06 21:01 | 10.00360 | -70.01244 | 34968 ft | 468 kts | 86° |
| 2026-05-06 21:01 | 10.00558 | -69.97942 | 34132 ft | 471 kts | 86° |
| 2026-05-06 21:01 | 10.00755 | -69.94637 | 33749 ft | 469 kts | 86° |
| 2026-05-06 21:02 | 10.01154 | -69.87953 | 33758 ft | 480 kts | 86° |
| 2026-05-06 21:02 | 10.01489 | -69.82313 | 33768 ft | 482 kts | 86° |
| 2026-05-06 21:03 | 10.01892 | -69.75516 | 33767 ft | 482 kts | 86° |
| 2026-05-06 21:03 | 10.02293 | -69.68722 | 33784 ft | 482 kts | 86° |
| 2026-05-06 21:03 | 10.02492 | -69.65353 | 33435 ft | 477 kts | 86° |
| 2026-05-06 21:04 | 10.02640 | -69.62833 | 32723 ft | 480 kts | 86° |
| 2026-05-06 21:04 | 10.02835 | -69.59516 | 31878 ft | 483 kts | 86° |
| 2026-05-06 21:04 | 10.03035 | -69.56109 | 31008 ft | 484 kts | 86° |
| 2026-05-06 21:04 | 10.03235 | -69.52694 | 30110 ft | 486 kts | 86° |
| 2026-05-06 21:05 | 10.03434 | -69.49306 | 29109 ft | 489 kts | 87° |
| 2026-05-06 21:05 | 10.03636 | -69.45850 | 28079 ft | 492 kts | 86° |
| 2026-05-06 21:05 | 10.03838 | -69.42384 | 27069 ft | 493 kts | 86° |
| 2026-05-06 21:05 | 10.04039 | -69.38920 | 26247 ft | 489 kts | 86° |
| 2026-05-06 21:06 | 10.04205 | -69.35489 | 25490 ft | 484 kts | 89° |
| 2026-05-06 21:06 | 10.04115 | -69.32089 | 24795 ft | 479 kts | 91° |
| 2026-05-06 21:06 | 10.04033 | -69.28735 | 24095 ft | 473 kts | 90° |
| 2026-05-06 21:06 | 10.03969 | -69.25427 | 23498 ft | 465 kts | 89° |
| 2026-05-06 21:07 | 10.03913 | -69.22169 | 22925 ft | 457 kts | 89° |
| 2026-05-06 21:07 | 10.03860 | -69.18972 | 22296 ft | 451 kts | 89° |
| 2026-05-06 21:07 | 10.03807 | -69.15807 | 21661 ft | 446 kts | 89° |
| 2026-05-06 21:07 | 10.03755 | -69.12682 | 21012 ft | 441 kts | 89° |
| 2026-05-06 21:08 | 10.03703 | -69.09588 | 20388 ft | 435 kts | 89° |
| 2026-05-06 21:08 | 10.03651 | -69.06560 | 20144 ft | 422 kts | 89° |
| 2026-05-06 21:08 | 10.03601 | -69.03604 | 19496 ft | 419 kts | 89° |
| 2026-05-06 21:08 | 10.03551 | -69.00651 | 18801 ft | 417 kts | 89° |
| 2026-05-06 21:09 | 10.03500 | -68.97720 | 18151 ft | 415 kts | 89° |
| 2026-05-06 21:09 | 10.03450 | -68.94800 | 17509 ft | 412 kts | 89° |
| 2026-05-06 21:09 | 10.03400 | -68.91907 | 16875 ft | 408 kts | 90° |
| 2026-05-06 21:09 | 10.03350 | -68.89040 | 16246 ft | 405 kts | 90° |
| 2026-05-06 21:10 | 10.03300 | -68.86193 | 15626 ft | 401 kts | 90° |
| 2026-05-06 21:10 | 10.03250 | -68.83374 | 15017 ft | 398 kts | 90° |
| 2026-05-06 21:10 | 10.03201 | -68.80580 | 14417 ft | 394 kts | 90° |
| 2026-05-06 21:10 | 10.03152 | -68.77806 | 13825 ft | 391 kts | 91° |